首页
METAR-TAF:

METAR-TAF

机场 :

路克空軍基地

格蘭岱爾, 亞利桑那州, 美国

纬度: 33-32N, 经度: 112-23W, 海拔: 332米

当前天气观测

该预报发布于1小时和3分钟前的17:58 UTC
风速3节,风向
温度 15°C
湿度 55%
气压 1024 hPa
能見度: 16.1公里
天空无云

METAR: KLUF 121758Z AUTO 08003KT 10SM CLR 15/06 A3025 RMK AO2 SLP242 T01500058 10151 20066 50010 $

时间: 12:01 (19:01 UTC)

预报

该预报发布于7小时和1分钟前的12:00 UTC
预报有效从12日的 12点(UTC)到 13日的 18点(UTC)
风速6节,风向多变
能见度10公里或以上
散云层高于25000英尺

TAF: KLUF 121200Z 1212/1318 VRB06KT 9999 SCT250 QNH3015INS TX19/1223Z TN07/1213Z

超过4000个机场的气象观测和天气预报(METAR&TAF报告)。

可查询的气象台以黄色和红色小点在地图上表示。

将鼠标移到小点上方,可查看气象台名称。

然后点击查看天气观测和预报。

如需切换地图:点击带黑十字的绿色按钮放大地图;点击带横线的绿色按钮缩小地图;或者点击绿色箭头查看邻近地区的地图。


METAR-TAF: